This is the latest recevied weather packets stored in our database for station/object NE1CU. If no packets are shown the sender has not sent any weather packets the latest 1 day(s).
| Time | Temp. | Humidity | Pressure | Rain* | Wind** | Luminosity | Snow |
|---|---|---|---|---|---|---|---|
| 1778003820 | 22.78° C | 52% | 1009.6 hPa | 0 mm | 1.79 m/s, 171° | 905 W/m² | - |
| 1778003517 | 23.33° C | 53% | 1009.6 hPa | 0 mm | 1.79 m/s, 149° | 910 W/m² | - |
| 1778003214 | 23.33° C | 52% | 1009.7 hPa | 0 mm | 1.79 m/s, 176° | 917 W/m² | - |
| 1778002910 | 23.33° C | 52% | 1009.6 hPa | 0 mm | 2.24 m/s, 185° | 917 W/m² | - |
| 1778002607 | 23.33° C | 54% | 1009.6 hPa | 0 mm | 1.34 m/s, 165° | 927 W/m² | - |
| 1778002304 | 23.89° C | 52% | 1009.7 hPa | 0 mm | 1.79 m/s, 236° | 932 W/m² | - |
| 1778002001 | 23.33° C | 53% | 1009.6 hPa | 0 mm | 0.45 m/s, 166° | 933 W/m² | - |
| 1778001698 | 24.44° C | 50% | 1009.8 hPa | 0 mm | 1.79 m/s, 164° | 936 W/m² | - |
| 1778001397 | 23.89° C | 51% | 1010 hPa | 0 mm | 0.89 m/s, 197° | 939 W/m² | - |
| 1778001095 | 23.89° C | 51% | 1009.8 hPa | 0 mm | 1.34 m/s, 197° | 940 W/m² | - |
| 1778000792 | 23.33° C | 55% | 1009.7 hPa | 0 mm | 1.34 m/s, 244° | 941 W/m² | - |
| 1778000488 | 23.33° C | 55% | 1010 hPa | 0 mm | 0.89 m/s, 125° | 942 W/m² | - |
| 1778000183 | 23.89° C | 54% | 1009.9 hPa | 0 mm | 0.89 m/s, 138° | 944 W/m² | - |
| 1777999880 | 23.33° C | 55% | 1009.9 hPa | 0 mm | 0.45 m/s, 175° | 946 W/m² | - |
| 1777999575 | 23.89° C | 53% | 1009.9 hPa | 0 mm | 1.34 m/s, 164° | 946 W/m² | - |
| 1777999273 | 23.33° C | 55% | 1010 hPa | 0 mm | 0.45 m/s, 138° | 943 W/m² | - |
| 1777998972 | 23.33° C | 51% | 1010 hPa | 0 mm | 1.34 m/s, 261° | 945 W/m² | - |
| 1777998669 | 22.78° C | 54% | 1010.2 hPa | 0 mm | 0.89 m/s, 142° | 930 W/m² | - |
| 1777998366 | 22.78° C | 54% | 1010.4 hPa | 0 mm | 1.34 m/s, 150° | 930 W/m² | - |
| 1777998064 | 22.78° C | 55% | 1010.4 hPa | 0 mm | 0.89 m/s, 149° | 930 W/m² | - |
| 1777997760 | 22.78° C | 56% | 1010.6 hPa | 0 mm | 0.89 m/s, 149° | 925 W/m² | - |
| 1777997458 | 22.78° C | 56% | 1010.6 hPa | 0 mm | 0.89 m/s, 135° | 924 W/m² | - |
| 1777997155 | 22.78° C | 55% | 1010.5 hPa | 0 mm | 1.34 m/s, 233° | 921 W/m² | - |
| 1777996853 | 22.78° C | 54% | 1010.6 hPa | 0 mm | 1.34 m/s, 168° | 914 W/m² | - |
| 1777996548 | 22.78° C | 57% | 1010.7 hPa | 0 mm | 0.45 m/s, 142° | 907 W/m² | - |
* Rain latest hour (hover to see other rain measurements)
** Current wind speed in m/s (hover to see current wind gust speed)